createdAt,value
2022-09-06T00:01:23.569Z,101473.00
2022-09-06T00:03:50.217Z,101458.00
2022-09-06T00:06:17.813Z,101458.00
2022-09-06T00:08:45.089Z,101461.00
2022-09-06T00:11:11.985Z,101463.00
2022-09-06T00:13:39.058Z,101460.00
2022-09-06T00:16:10.036Z,101463.00
2022-09-06T00:18:36.889Z,101474.00
2022-09-06T00:21:04.196Z,101477.00
2022-09-06T00:23:30.715Z,101465.00
2022-09-06T00:26:04.132Z,101462.00
2022-09-06T00:28:30.784Z,101460.00
2022-09-06T00:30:57.931Z,101462.00
2022-09-06T00:33:24.558Z,101471.00
2022-09-06T00:35:51.020Z,101463.00
2022-09-06T00:38:17.553Z,101470.00
2022-09-06T00:40:44.016Z,101468.00
2022-09-06T00:43:10.445Z,101472.00
2022-09-06T00:45:36.920Z,101471.00
2022-09-06T00:48:04.538Z,101474.00
2022-09-06T00:50:30.995Z,101474.00
2022-09-06T00:52:57.504Z,101476.00
2022-09-06T00:55:26.185Z,101482.00
2022-09-06T00:57:53.329Z,101488.00
2022-09-06T01:00:23.005Z,101487.00
2022-09-06T01:02:49.620Z,101492.00
2022-09-06T01:05:16.817Z,101494.00
2022-09-06T01:07:51.464Z,101494.00
2022-09-06T01:10:27.030Z,101502.00
2022-09-06T01:13:16.059Z,101500.00
2022-09-06T01:16:04.935Z,101507.00
2022-09-06T01:18:34.549Z,101513.00
2022-09-06T01:21:19.897Z,101499.00
2022-09-06T01:23:49.121Z,101500.00
2022-09-06T01:26:18.691Z,101506.00
2022-09-06T01:28:46.084Z,101503.00
2022-09-06T01:31:33.180Z,101500.00
2022-09-06T01:34:08.612Z,101509.00
2022-09-06T01:37:08.893Z,101507.00
2022-09-06T01:39:36.559Z,101505.00
2022-09-06T01:42:23.327Z,101499.00
2022-09-06T01:44:55.101Z,101493.00
2022-09-06T01:47:39.825Z,101494.00
2022-09-06T01:50:12.389Z,101494.00
2022-09-06T01:52:44.961Z,101494.00
2022-09-06T01:55:11.391Z,101495.00
2022-09-06T01:57:37.835Z,101491.00
2022-09-06T02:00:08.656Z,101491.00
2022-09-06T02:02:35.295Z,101483.00
2022-09-06T02:05:05.625Z,101484.00
2022-09-06T02:07:33.412Z,101473.00
2022-09-06T02:10:07.354Z,101481.00
2022-09-06T02:12:35.622Z,101475.00
2022-09-06T02:15:04.847Z,101463.00
2022-09-06T02:17:32.817Z,101471.00
2022-09-06T02:20:05.431Z,101475.00
2022-09-06T02:22:34.873Z,101482.00
2022-09-06T02:25:02.035Z,101474.00
2022-09-06T02:27:30.726Z,101490.00
2022-09-06T02:29:57.651Z,101486.00
2022-09-06T02:32:26.364Z,101484.00
2022-09-06T02:34:54.265Z,101481.00
2022-09-06T02:37:20.876Z,101475.00
2022-09-06T02:39:47.370Z,101468.00
2022-09-06T02:42:15.557Z,101482.00
2022-09-06T02:44:41.979Z,101485.00
2022-09-06T02:47:08.562Z,101472.00
2022-09-06T02:49:35.140Z,101486.00
2022-09-06T02:52:01.673Z,101490.00
2022-09-06T02:54:28.133Z,101485.00
2022-09-06T02:56:54.695Z,101489.00
2022-09-06T02:59:21.185Z,101493.00
2022-09-06T03:01:47.665Z,101495.00
2022-09-06T03:04:14.201Z,101490.00
2022-09-06T03:06:40.682Z,101489.00
2022-09-06T03:09:07.114Z,101488.00
2022-09-06T03:11:33.552Z,101491.00
2022-09-06T03:14:00.009Z,101492.00
2022-09-06T03:16:26.568Z,101484.00
2022-09-06T03:18:53.149Z,101493.00
2022-09-06T03:21:19.716Z,101488.00
2022-09-06T03:23:46.153Z,101479.00
2022-09-06T03:26:12.978Z,101486.00
2022-09-06T03:28:39.625Z,101474.00
2022-09-06T03:31:06.365Z,101484.00
2022-09-06T03:33:32.885Z,101478.00
2022-09-06T03:36:00.333Z,101478.00
2022-09-06T03:38:27.807Z,101487.00
2022-09-06T03:40:54.650Z,101480.00
2022-09-06T03:43:21.779Z,101481.00
2022-09-06T03:45:49.146Z,101478.00
2022-09-06T03:48:16.095Z,101480.00
2022-09-06T03:50:46.556Z,101483.00
2022-09-06T03:53:13.365Z,101483.00
2022-09-06T03:55:40.023Z,101481.00
2022-09-06T03:58:06.495Z,101484.00
2022-09-06T04:00:33.677Z,101486.00
2022-09-06T04:03:01.849Z,101478.00
2022-09-06T04:05:28.581Z,101477.00
2022-09-06T04:07:55.155Z,101471.00
2022-09-06T04:10:21.748Z,101467.00
2022-09-06T04:12:48.179Z,101463.00
2022-09-06T04:15:14.658Z,101455.00
2022-09-06T04:17:45.189Z,101447.00
2022-09-06T04:20:12.249Z,101446.00
2022-09-06T04:22:38.789Z,101436.00
2022-09-06T04:25:05.623Z,101443.00
2022-09-06T04:27:32.366Z,101431.00
2022-09-06T04:29:58.891Z,101436.00
2022-09-06T04:32:25.389Z,101423.00
2022-09-06T04:34:51.829Z,101435.00
2022-09-06T04:37:20.126Z,101434.00
2022-09-06T04:39:47.114Z,101415.00
2022-09-06T04:42:13.713Z,101406.00
2022-09-06T04:44:40.183Z,101410.00
2022-09-06T04:47:09.866Z,101418.00
2022-09-06T04:49:36.389Z,101397.00
2022-09-06T04:52:02.912Z,101407.00
2022-09-06T04:54:29.353Z,101404.00
2022-09-06T04:56:55.877Z,101401.00
2022-09-06T04:59:22.373Z,101390.00
2022-09-06T05:01:48.877Z,101388.00
2022-09-06T05:04:15.432Z,101389.00
2022-09-06T05:06:43.021Z,101390.00
2022-09-06T05:09:09.727Z,101413.00
2022-09-06T05:11:36.197Z,101419.00
2022-09-06T05:14:02.659Z,101423.00
2022-09-06T05:16:36.422Z,101418.00
2022-09-06T05:19:02.955Z,101420.00
2022-09-06T05:21:29.466Z,101421.00
2022-09-06T05:23:58.661Z,101422.00
2022-09-06T05:26:25.458Z,101420.00
2022-09-06T05:28:51.915Z,101425.00
2022-09-06T05:31:31.969Z,101430.00
2022-09-06T05:33:58.735Z,101430.00
2022-09-06T05:36:26.016Z,101425.00
2022-09-06T05:38:53.237Z,101423.00
2022-09-06T05:41:19.859Z,101419.00
2022-09-06T05:43:46.423Z,101409.00
2022-09-06T05:46:13.231Z,101407.00
2022-09-06T05:48:40.083Z,101408.00
2022-09-06T05:51:07.649Z,101415.00
2022-09-06T05:53:38.110Z,101411.00
2022-09-06T05:56:04.929Z,101410.00
2022-09-06T05:58:31.479Z,101406.00
2022-09-06T06:01:04.636Z,101416.00
2022-09-06T06:03:31.131Z,101416.00
2022-09-06T06:05:57.587Z,101416.00
2022-09-06T06:08:24.009Z,101408.00
2022-09-06T06:10:50.477Z,101413.00
2022-09-06T06:13:16.910Z,101413.00
2022-09-06T06:15:43.378Z,101411.00
2022-09-06T06:18:10.111Z,101406.00
2022-09-06T06:20:36.593Z,101403.00
2022-09-06T06:23:03.085Z,101411.00
2022-09-06T06:25:29.550Z,101409.00
2022-09-06T06:27:55.991Z,101412.00
2022-09-06T06:30:22.497Z,101403.00
2022-09-06T06:32:48.996Z,101391.00
2022-09-06T06:35:15.510Z,101379.00
2022-09-06T06:37:42.480Z,101374.00
2022-09-06T06:40:09.264Z,101377.00
2022-09-06T06:42:35.786Z,101396.00
2022-09-06T06:45:02.229Z,101409.00
2022-09-06T06:47:28.690Z,101409.00
2022-09-06T06:49:55.151Z,101408.00
2022-09-06T06:52:22.047Z,101401.00
2022-09-06T06:54:50.098Z,101419.00
2022-09-06T06:57:16.565Z,101417.00
2022-09-06T06:59:43.487Z,101417.00
2022-09-06T07:02:10.099Z,101411.00
2022-09-06T07:04:36.695Z,101416.00
2022-09-06T07:12:37.935Z,101411.00
2022-09-06T07:15:04.625Z,101415.00
2022-09-06T07:17:31.155Z,101423.00
2022-09-06T07:20:13.790Z,101426.00
2022-09-06T07:22:41.641Z,101416.00
2022-09-06T07:25:14.460Z,101419.00
2022-09-06T07:30:15.978Z,101417.00
2022-09-06T07:32:42.433Z,101420.00
2022-09-06T07:35:09.123Z,101418.00
2022-09-06T07:37:35.737Z,101417.00
2022-09-06T07:40:02.932Z,101420.00
2022-09-06T07:42:35.621Z,101436.00
2022-09-06T07:45:03.391Z,101431.00
2022-09-06T07:55:38.134Z,101439.00
2022-09-06T07:58:04.728Z,101438.00
2022-09-06T08:00:31.932Z,101431.00
2022-09-06T08:02:58.466Z,101434.00
2022-09-06T08:10:57.789Z,101440.00
2022-09-06T08:13:24.304Z,101436.00
2022-09-06T08:15:57.990Z,101441.00
2022-09-06T08:18:24.503Z,101446.00
2022-09-06T08:20:50.969Z,101453.00
2022-09-06T08:23:17.503Z,101453.00
2022-09-06T08:25:43.940Z,101454.00
2022-09-06T08:28:10.534Z,101453.00
2022-09-06T08:30:37.018Z,101455.00
2022-09-06T08:33:03.549Z,101462.00
2022-09-06T08:35:30.161Z,101458.00
2022-09-06T08:37:57.759Z,101461.00
2022-09-06T08:40:25.429Z,101472.00
2022-09-06T08:42:51.960Z,101471.00
2022-09-06T08:45:23.283Z,101477.00
2022-09-06T08:47:52.367Z,101473.00
2022-09-06T08:50:19.429Z,101477.00
2022-09-06T08:53:06.131Z,101480.00
2022-09-06T08:55:37.892Z,101491.00
2022-09-06T08:58:18.351Z,101491.00
2022-09-06T09:00:51.263Z,101494.00
2022-09-06T09:03:21.115Z,101499.00
2022-09-06T09:05:49.081Z,101511.00
2022-09-06T09:08:16.090Z,101505.00
2022-09-06T09:10:45.362Z,101512.00
2022-09-06T09:13:41.107Z,101509.00
2022-09-06T09:16:07.782Z,101508.00
2022-09-06T09:18:36.974Z,101510.00
2022-09-06T09:21:03.630Z,101500.00
2022-09-06T09:23:31.055Z,101486.00
2022-09-06T09:26:02.459Z,101478.00
2022-09-06T09:28:29.295Z,101481.00
2022-09-06T09:30:56.693Z,101471.00
2022-09-06T09:33:23.440Z,101473.00
2022-09-06T09:35:50.274Z,101464.00
2022-09-06T09:38:24.805Z,101469.00
2022-09-06T09:40:55.673Z,101477.00
2022-09-06T09:43:26.529Z,101482.00
2022-09-06T09:46:11.238Z,101476.00
2022-09-06T09:48:37.826Z,101479.00
2022-09-06T09:51:30.414Z,101480.00
2022-09-06T09:53:58.065Z,101481.00
2022-09-06T09:56:29.804Z,101474.00
2022-09-06T09:58:57.918Z,101471.00
2022-09-06T10:01:27.624Z,101479.00
2022-09-06T10:09:43.791Z,101484.00
2022-09-06T10:12:15.554Z,101487.00
2022-09-06T10:14:44.192Z,101488.00
2022-09-06T10:17:18.695Z,101473.00
2022-09-06T10:19:46.343Z,101477.00
2022-09-06T10:22:12.778Z,101463.00
2022-09-06T10:24:45.112Z,101446.00
2022-09-06T10:27:11.631Z,101453.00
2022-09-06T10:29:48.047Z,101456.00
2022-09-06T10:32:52.846Z,101443.00
2022-09-06T10:35:30.950Z,101451.00
2022-09-06T10:38:13.372Z,101457.00
2022-09-06T10:40:56.629Z,101451.00
2022-09-06T10:43:24.293Z,101448.00
2022-09-06T10:45:57.172Z,101438.00
2022-09-06T10:48:26.650Z,101442.00
2022-09-06T10:50:59.299Z,101444.00
2022-09-06T10:53:34.983Z,101436.00
2022-09-06T10:56:12.996Z,101441.00
2022-09-06T11:01:52.684Z,101439.00
2022-09-06T11:04:25.408Z,101439.00
2022-09-06T11:06:55.917Z,101435.00
2022-09-06T11:09:25.521Z,101434.00
2022-09-06T11:12:24.491Z,101443.00
2022-09-06T11:14:51.824Z,101441.00
2022-09-06T11:17:28.154Z,101441.00
2022-09-06T11:20:04.961Z,101441.00
2022-09-06T11:22:46.439Z,101442.00
2022-09-06T11:25:27.423Z,101439.00
2022-09-06T11:27:58.072Z,101444.00
2022-09-06T11:30:25.922Z,101447.00
2022-09-06T11:33:03.526Z,101445.00
2022-09-06T11:35:35.021Z,101443.00
2022-09-06T11:38:03.784Z,101440.00
2022-09-06T11:40:37.055Z,101436.00
2022-09-06T11:43:03.811Z,101449.00
2022-09-06T11:45:46.995Z,101457.00
2022-09-06T11:48:34.413Z,101454.00
2022-09-06T11:51:06.805Z,101455.00
2022-09-06T11:53:48.531Z,101455.00
2022-09-06T11:56:33.841Z,101451.00
2022-09-06T11:59:06.516Z,101443.00
2022-09-06T12:01:34.641Z,101447.00
2022-09-06T12:06:35.449Z,101448.00
2022-09-06T12:09:02.263Z,101452.00
2022-09-06T12:11:42.413Z,101457.00
2022-09-06T12:14:29.157Z,101450.00
2022-09-06T12:16:55.622Z,101446.00
2022-09-06T12:19:44.077Z,101453.00
2022-09-06T12:22:32.867Z,101460.00
2022-09-06T12:25:04.371Z,101450.00
2022-09-06T12:27:33.881Z,101449.00
2022-09-06T12:30:04.427Z,101446.00
2022-09-06T12:32:44.549Z,101445.00
2022-09-06T12:38:13.564Z,101438.00
2022-09-06T12:40:51.589Z,101428.00
2022-09-06T12:43:19.087Z,101426.00
2022-09-06T12:45:46.734Z,101428.00
2022-09-06T12:48:25.301Z,101424.00
2022-09-06T12:51:05.459Z,101414.00
2022-09-06T12:53:34.227Z,101418.00
2022-09-06T12:56:04.827Z,101417.00
2022-09-06T12:58:31.469Z,101419.00
2022-09-06T13:01:03.651Z,101423.00
2022-09-06T13:03:30.135Z,101423.00
2022-09-06T13:05:58.952Z,101426.00
2022-09-06T13:08:30.284Z,101429.00
2022-09-06T13:10:57.123Z,101425.00
2022-09-06T13:13:24.931Z,101417.00
2022-09-06T13:15:51.651Z,101417.00
2022-09-06T13:18:21.675Z,101412.00
2022-09-06T13:21:01.759Z,101414.00
2022-09-06T13:23:28.242Z,101416.00
2022-09-06T13:25:55.730Z,101413.00
2022-09-06T13:28:25.419Z,101418.00
2022-09-06T13:31:04.499Z,101413.00
2022-09-06T13:33:31.639Z,101410.00
2022-09-06T13:36:13.373Z,101402.00
2022-09-06T13:38:41.225Z,101400.00
2022-09-06T13:41:27.712Z,101398.00
2022-09-06T13:44:01.395Z,101400.00
2022-09-06T13:46:27.908Z,101395.00
2022-09-06T13:48:57.275Z,101392.00
2022-09-06T13:51:24.245Z,101395.00
2022-09-06T13:53:51.041Z,101380.00
2022-09-06T13:56:17.815Z,101388.00
2022-09-06T13:58:45.156Z,101386.00
2022-09-06T14:01:12.036Z,101380.00
2022-09-06T14:03:40.982Z,101379.00
2022-09-06T14:06:08.274Z,101389.00
2022-09-06T14:08:56.304Z,101378.00
2022-09-06T14:11:24.018Z,101380.00
2022-09-06T14:13:50.475Z,101377.00
2022-09-06T14:16:17.183Z,101368.00
2022-09-06T14:18:43.693Z,101375.00
2022-09-06T14:21:10.258Z,101383.00
2022-09-06T14:23:36.746Z,101383.00
2022-09-06T14:26:04.218Z,101380.00
2022-09-06T14:28:32.179Z,101377.00
2022-09-06T14:30:58.960Z,101380.00
2022-09-06T14:33:25.545Z,101381.00
2022-09-06T14:35:52.369Z,101381.00
2022-09-06T14:38:18.869Z,101377.00
2022-09-06T14:40:45.303Z,101378.00
2022-09-06T14:43:11.744Z,101385.00
2022-09-06T14:45:38.439Z,101385.00
2022-09-06T14:48:05.573Z,101383.00
2022-09-06T14:50:32.088Z,101376.00
2022-09-06T14:52:58.782Z,101381.00
2022-09-06T14:55:25.422Z,101378.00
2022-09-06T14:57:52.392Z,101375.00
2022-09-06T15:00:18.989Z,101369.00
2022-09-06T15:02:45.472Z,101378.00
2022-09-06T15:05:12.339Z,101378.00
2022-09-06T15:07:38.835Z,101369.00
2022-09-06T15:10:05.550Z,101365.00
2022-09-06T15:12:32.400Z,101368.00
2022-09-06T15:14:59.143Z,101362.00
2022-09-06T15:17:25.592Z,101373.00
2022-09-06T15:19:52.085Z,101364.00
2022-09-06T15:22:18.565Z,101367.00
2022-09-06T15:24:45.149Z,101358.00
2022-09-06T15:27:11.622Z,101344.00
2022-09-06T15:29:38.163Z,101346.00
2022-09-06T15:32:04.667Z,101344.00
2022-09-06T15:34:31.088Z,101348.00
2022-09-06T15:36:57.619Z,101343.00
2022-09-06T15:39:24.219Z,101343.00
2022-09-06T15:41:51.645Z,101337.00
2022-09-06T15:44:19.094Z,101327.00
2022-09-06T15:46:47.245Z,101324.00
2022-09-06T15:49:15.244Z,101338.00
2022-09-06T15:51:42.266Z,101330.00
2022-09-06T15:54:09.397Z,101332.00
2022-09-06T15:56:36.445Z,101322.00
2022-09-06T15:59:03.427Z,101320.00
2022-09-06T16:01:30.118Z,101320.00
2022-09-06T16:04:03.646Z,101314.00
2022-09-06T16:06:31.317Z,101325.00
2022-09-06T16:08:59.035Z,101309.00
2022-09-06T16:11:25.881Z,101307.00
2022-09-06T16:13:53.030Z,101311.00
2022-09-06T16:16:19.617Z,101310.00
2022-09-06T16:18:48.904Z,101313.00
2022-09-06T16:21:25.464Z,101310.00
2022-09-06T16:23:53.585Z,101305.00
2022-09-06T16:26:21.769Z,101301.00
2022-09-06T16:28:49.429Z,101295.00
2022-09-06T16:31:16.002Z,101293.00
2022-09-06T16:33:44.126Z,101293.00
2022-09-06T16:36:10.623Z,101291.00
2022-09-06T16:38:37.615Z,101287.00
2022-09-06T16:41:18.251Z,101300.00
2022-09-06T16:43:45.439Z,101291.00
2022-09-06T16:46:12.342Z,101287.00
2022-09-06T16:48:41.814Z,101287.00
2022-09-06T16:51:09.823Z,101286.00
2022-09-06T16:53:36.397Z,101292.00
2022-09-06T16:56:03.688Z,101291.00
2022-09-06T16:58:30.330Z,101284.00
2022-09-06T17:00:56.993Z,101282.00
2022-09-06T17:03:23.772Z,101287.00
2022-09-06T17:05:51.081Z,101278.00
2022-09-06T17:08:17.788Z,101258.00
2022-09-06T17:10:44.569Z,101264.00
2022-09-06T17:13:11.243Z,101257.00
2022-09-06T17:15:56.435Z,101253.00
2022-09-06T17:18:23.498Z,101252.00
2022-09-06T17:20:57.086Z,101252.00
2022-09-06T17:23:24.124Z,101247.00
2022-09-06T17:25:51.161Z,101240.00
2022-09-06T17:28:17.771Z,101242.00
2022-09-06T17:30:44.312Z,101242.00
2022-09-06T17:33:11.088Z,101241.00
2022-09-06T17:35:40.147Z,101238.00
2022-09-06T17:38:06.952Z,101236.00
2022-09-06T17:40:33.511Z,101234.00
2022-09-06T17:43:00.659Z,101229.00
2022-09-06T17:45:27.256Z,101229.00
2022-09-06T17:47:53.749Z,101234.00
2022-09-06T17:50:20.494Z,101241.00
2022-09-06T17:52:49.926Z,101243.00
2022-09-06T17:55:16.727Z,101245.00
2022-09-06T17:57:43.307Z,101245.00
2022-09-06T18:00:11.217Z,101236.00
2022-09-06T18:02:37.736Z,101234.00
2022-09-06T18:05:04.379Z,101229.00
2022-09-06T18:07:31.109Z,101229.00
2022-09-06T18:09:57.585Z,101235.00
2022-09-06T18:12:29.567Z,101225.00
2022-09-06T18:14:57.064Z,101221.00
2022-09-06T18:17:24.086Z,101230.00
2022-09-06T18:19:50.581Z,101232.00
2022-09-06T18:22:17.083Z,101227.00
2022-09-06T18:24:44.209Z,101237.00
2022-09-06T18:27:10.681Z,101255.00
2022-09-06T18:29:39.556Z,101290.00
2022-09-06T18:32:07.559Z,101300.00
2022-09-06T18:34:34.408Z,101303.00
2022-09-06T18:37:01.029Z,101305.00
2022-09-06T18:39:27.547Z,101323.00
2022-09-06T18:42:00.119Z,101343.00
2022-09-06T18:44:32.376Z,101347.00
2022-09-06T18:47:01.301Z,101340.00
2022-09-06T18:49:29.134Z,101341.00
2022-09-06T18:51:55.649Z,101340.00
2022-09-06T18:54:22.183Z,101362.00
2022-09-06T18:56:51.099Z,101373.00
2022-09-06T18:59:17.846Z,101367.00
2022-09-06T19:01:44.606Z,101367.00
2022-09-06T19:04:11.704Z,101367.00
2022-09-06T19:06:38.916Z,101365.00
2022-09-06T19:09:10.420Z,101372.00
2022-09-06T19:11:37.122Z,101381.00
2022-09-06T19:14:04.098Z,101373.00
2022-09-06T19:16:33.912Z,101371.00
2022-09-06T19:19:04.802Z,101378.00
2022-09-06T19:21:31.821Z,101405.00
2022-09-06T19:23:59.580Z,101399.00
2022-09-06T19:26:29.352Z,101404.00
2022-09-06T19:28:57.352Z,101405.00
2022-09-06T19:31:25.420Z,101415.00
2022-09-06T19:33:52.076Z,101418.00
2022-09-06T19:36:19.719Z,101417.00
2022-09-06T19:39:02.519Z,101412.00
2022-09-06T19:41:30.343Z,101408.00
2022-09-06T19:43:57.681Z,101406.00
2022-09-06T19:46:24.640Z,101414.00
2022-09-06T19:48:52.228Z,101434.00
2022-09-06T19:51:19.036Z,101445.00
2022-09-06T19:53:58.324Z,101465.00
2022-09-06T19:56:31.637Z,101490.00
2022-09-06T19:58:59.361Z,101492.00
2022-09-06T20:01:27.662Z,101491.00
2022-09-06T20:03:54.642Z,101496.00
2022-09-06T20:06:22.511Z,101501.00
2022-09-06T20:08:50.553Z,101516.00
2022-09-06T20:11:17.301Z,101517.00
2022-09-06T20:13:43.814Z,101523.00
2022-09-06T20:16:10.944Z,101503.00
2022-09-06T20:18:37.869Z,101479.00
2022-09-06T20:21:05.345Z,101483.00
2022-09-06T20:23:32.716Z,101487.00
2022-09-06T20:26:05.549Z,101482.00
2022-09-06T20:28:32.839Z,101483.00
2022-09-06T20:31:01.201Z,101475.00
2022-09-06T20:33:27.972Z,101472.00
2022-09-06T20:35:57.285Z,101463.00
2022-09-06T20:38:24.582Z,101457.00
2022-09-06T20:40:58.094Z,101453.00
2022-09-06T20:43:24.803Z,101447.00
2022-09-06T20:45:51.292Z,101450.00
2022-09-06T20:48:17.765Z,101451.00
2022-09-06T20:50:44.222Z,101440.00
2022-09-06T20:53:10.766Z,101433.00
2022-09-06T20:55:37.336Z,101403.00
2022-09-06T20:58:03.864Z,101389.00
2022-09-06T21:00:30.389Z,101379.00
2022-09-06T21:02:57.192Z,101371.00
2022-09-06T21:05:23.702Z,101351.00
2022-09-06T21:07:50.205Z,101351.00
2022-09-06T21:10:16.732Z,101343.00
2022-09-06T21:12:43.219Z,101347.00
2022-09-06T21:15:09.978Z,101346.00
2022-09-06T21:17:36.601Z,101350.00
2022-09-06T21:20:03.195Z,101349.00
2022-09-06T21:22:29.666Z,101349.00
2022-09-06T21:24:56.149Z,101346.00
2022-09-06T21:27:22.643Z,101348.00
2022-09-06T21:29:49.169Z,101329.00
2022-09-06T21:32:15.588Z,101331.00
2022-09-06T21:34:42.065Z,101337.00
2022-09-06T21:37:08.584Z,101339.00
2022-09-06T21:39:35.063Z,101340.00
2022-09-06T21:42:01.524Z,101331.00
2022-09-06T21:44:28.297Z,101319.00
2022-09-06T21:46:54.916Z,101314.00
2022-09-06T21:49:21.386Z,101305.00
2022-09-06T21:51:47.857Z,101295.00
2022-09-06T21:54:14.336Z,101289.00
2022-09-06T21:56:41.243Z,101283.00
2022-09-06T21:59:07.979Z,101272.00
2022-09-06T22:01:35.535Z,101264.00
2022-09-06T22:04:02.520Z,101253.00
2022-09-06T22:06:30.257Z,101250.00
2022-09-06T22:08:58.158Z,101250.00
2022-09-06T22:11:26.313Z,101257.00
2022-09-06T22:13:52.863Z,101259.00
2022-09-06T22:16:20.775Z,101266.00
2022-09-06T22:18:50.937Z,101270.00
2022-09-06T22:21:20.260Z,101267.00
2022-09-06T22:23:56.948Z,101256.00
2022-09-06T22:26:24.136Z,101245.00
2022-09-06T22:28:54.927Z,101240.00
2022-09-06T22:31:21.966Z,101240.00
2022-09-06T22:33:48.580Z,101248.00
2022-09-06T22:36:15.066Z,101251.00
2022-09-06T22:38:41.638Z,101251.00
2022-09-06T22:41:09.382Z,101256.00
2022-09-06T22:43:35.854Z,101246.00
2022-09-06T22:46:05.957Z,101251.00
2022-09-06T22:48:33.275Z,101251.00
2022-09-06T22:51:00.701Z,101248.00
2022-09-06T22:53:28.055Z,101244.00
2022-09-06T22:55:55.346Z,101241.00
2022-09-06T22:58:22.395Z,101244.00
2022-09-06T23:00:48.956Z,101232.00
2022-09-06T23:03:15.508Z,101233.00
2022-09-06T23:05:42.080Z,101244.00
2022-09-06T23:08:11.760Z,101242.00
2022-09-06T23:10:42.136Z,101235.00
2022-09-06T23:13:09.275Z,101224.00
2022-09-06T23:15:36.388Z,101220.00
2022-09-06T23:18:03.185Z,101217.00
2022-09-06T23:20:30.537Z,101224.00
2022-09-06T23:22:57.327Z,101222.00
2022-09-06T23:25:24.007Z,101215.00
2022-09-06T23:27:50.524Z,101211.00
2022-09-06T23:30:17.151Z,101214.00
2022-09-06T23:32:43.611Z,101206.00
2022-09-06T23:35:10.294Z,101210.00
2022-09-06T23:37:36.986Z,101204.00
2022-09-06T23:40:07.040Z,101212.00
2022-09-06T23:42:35.563Z,101221.00
2022-09-06T23:45:02.031Z,101217.00
2022-09-06T23:47:28.603Z,101215.00
2022-09-06T23:49:55.284Z,101213.00
2022-09-06T23:52:21.801Z,101210.00
2022-09-06T23:54:48.238Z,101211.00
2022-09-06T23:57:14.729Z,101217.00
2022-09-06T23:59:41.189Z,101203.00
